Time;durP1;ratioP1;P1;durP2;ratioP2;P2;SDS_P1;SDS_P2;PMS_P1;PMS_P2;Temp;Humidity;BMP_temperature;BMP_pressure;BME280_temperature;BME280_humidity;BME280_pressure;Samples;Min_cycle;Max_cycle;Signal;HPM_P1;HPM_P2
2021/09/29 00:00:56;;;;;;;5.03;4.73;;;;;;;9.21;100.00;98298.38;4973983;28;20198;-69
2021/09/29 00:03:25;;;;;;;6.00;5.07;;;;;;;9.25;100.00;98294.47;4969467;28;20316;-67
2021/09/29 00:05:53;;;;;;;5.80;5.40;;;;;;;9.18;100.00;98290.75;4929694;28;20425;-69
2021/09/29 00:08:21;;;;;;;5.50;5.10;;;;;;;9.19;100.00;98295.88;4928935;28;20795;-68
2021/09/29 00:10:49;;;;;;;5.47;5.00;;;;;;;9.21;100.00;98296.56;4963443;28;20213;-67
2021/09/29 00:13:19;;;;;;;6.20;5.53;;;;;;;9.21;100.00;98298.38;4971075;28;20298;-67
2021/09/29 00:15:47;;;;;;;5.43;5.03;;;;;;;9.19;100.00;98301.16;4957571;28;20211;-67
2021/09/29 00:18:15;;;;;;;5.23;4.83;;;;;;;9.21;100.00;98293.91;4969964;28;20217;-69
2021/09/29 00:20:45;;;;;;;5.40;5.07;;;;;;;9.23;100.00;98281.38;4959980;28;20209;-67
2021/09/29 00:23:13;;;;;;;6.43;5.93;;;;;;;9.21;100.00;98275.41;4942257;28;22008;-67
2021/09/29 00:25:40;;;;;;;5.30;4.90;;;;;;;9.24;100.00;98275.09;4966630;28;20241;-68
2021/09/29 00:28:08;;;;;;;5.63;5.23;;;;;;;9.27;100.00;98266.88;4970281;28;20421;-69
2021/09/29 00:30:39;;;;;;;5.87;5.40;;;;;;;9.25;100.00;98268.03;4970273;28;20214;-68
2021/09/29 00:33:07;;;;;;;6.33;5.63;;;;;;;9.29;100.00;98260.63;4968243;28;20292;-69
2021/09/29 00:35:35;;;;;;;6.00;5.17;;;;;;;9.40;100.00;98255.13;4959810;28;20203;-69
2021/09/29 00:38:04;;;;;;;5.97;5.47;;;;;;;9.41;100.00;98249.66;4966457;28;20210;-69
2021/09/29 00:40:32;;;;;;;6.10;5.70;;;;;;;9.44;100.00;98245.06;4937793;28;20232;-68
2021/09/29 00:43:00;;;;;;;5.83;5.43;;;;;;;9.66;100.00;98230.53;4968354;28;20226;-68
2021/09/29 00:45:28;;;;;;;7.47;6.27;;;;;;;9.85;100.00;98232.22;4977097;28;20202;-67
2021/09/29 00:47:56;;;;;;;6.37;5.90;;;;;;;10.04;100.00;98225.91;4970911;28;20221;-67
2021/09/29 00:50:24;;;;;;;5.77;5.33;;;;;;;10.21;100.00;98226.00;4974701;28;20201;-69
2021/09/29 00:52:52;;;;;;;5.97;5.53;;;;;;;10.02;100.00;98230.50;4961404;28;20245;-68
2021/09/29 00:55:21;;;;;;;5.50;5.10;;;;;;;10.07;100.00;98225.59;4937745;28;20681;-70
2021/09/29 00:57:49;;;;;;;5.27;4.87;;;;;;;10.13;100.00;98224.97;4970908;28;20210;-67
2021/09/29 01:00:21;;;;;;;5.70;5.30;;;;;;;9.98;100.00;98222.03;4973030;28;20593;-69
2021/09/29 01:02:49;;;;;;;5.90;5.30;;;;;;;9.96;100.00;98225.81;4974316;28;20265;-67
2021/09/29 01:05:17;;;;;;;5.17;4.77;;;;;;;10.00;100.00;98205.97;4975698;28;20443;-68
2021/09/29 01:07:51;;;;;;;5.93;5.33;;;;;;;10.01;100.00;98215.59;4969864;28;20957;-67
2021/09/29 01:10:29;;;;;;;5.67;5.27;;;;;;;10.04;100.00;98222.41;4936398;28;20210;-68
2021/09/29 01:13:05;;;;;;;5.90;5.50;;;;;;;10.03;100.00;98218.09;4968973;28;20229;-68
2021/09/29 01:15:37;;;;;;;5.40;5.00;;;;;;;10.02;100.00;98211.13;4974016;28;20205;-68
2021/09/29 01:18:08;;;;;;;5.63;5.27;;;;;;;10.05;100.00;98222.25;4969212;28;20561;-67
2021/09/29 01:20:38;;;;;;;5.43;5.03;;;;;;;10.00;100.00;98208.63;4973330;28;20206;-69
2021/09/29 01:23:30;;;;;;;6.10;5.70;;;;;;;9.98;100.00;98207.97;4960963;28;20251;-68
2021/09/29 01:26:08;;;;;;;5.83;5.43;;;;;;;10.06;100.00;98215.97;4938699;28;20482;-69
2021/09/29 01:28:40;;;;;;;5.93;5.53;;;;;;;10.07;100.00;98220.28;4975433;28;20209;-69
2021/09/29 01:31:09;;;;;;;7.10;5.73;;;;;;;10.01;100.00;98222.72;4970656;28;20249;-69
2021/09/29 01:33:38;;;;;;;6.60;6.00;;;;;;;10.04;100.00;98220.59;4972673;28;20229;-68
2021/09/29 01:36:06;;;;;;;6.30;5.70;;;;;;;10.10;100.00;98213.84;4964545;28;20210;-67
2021/09/29 01:38:38;;;;;;;6.63;6.13;;;;;;;10.02;100.00;98224.38;4963921;28;20214;-69
2021/09/29 01:41:08;;;;;;;5.67;5.27;;;;;;;10.01;100.00;98215.59;4939095;28;20586;-68
2021/09/29 01:43:36;;;;;;;6.30;5.80;;;;;;;9.99;100.00;98217.56;4972161;28;20316;-70
2021/09/29 01:46:06;;;;;;;6.63;6.03;;;;;;;10.01;100.00;98217.41;4972385;28;20689;-68
2021/09/29 01:48:36;;;;;;;6.23;5.60;;;;;;;10.06;100.00;98223.06;4968201;28;20297;-68
2021/09/29 01:51:04;;;;;;;6.40;5.90;;;;;;;10.08;100.00;98219.31;4964286;28;20551;-68
2021/09/29 01:53:33;;;;;;;6.40;5.90;;;;;;;10.09;100.00;98213.03;4956646;28;20848;-69
2021/09/29 01:56:01;;;;;;;7.17;6.60;;;;;;;10.16;100.00;98215.03;4932591;28;20214;-69
2021/09/29 01:58:32;;;;;;;6.27;5.77;;;;;;;10.40;100.00;98207.25;4964666;28;20539;-70
2021/09/29 02:01:01;;;;;;;6.20;5.70;;;;;;;10.40;100.00;98207.25;4968939;28;20206;-68
2021/09/29 02:03:29;;;;;;;6.03;5.63;;;;;;;10.37;100.00;98215.47;4966614;28;20850;-68
2021/09/29 02:05:57;;;;;;;6.73;6.23;;;;;;;10.59;100.00;98217.78;4973494;28;20217;-69
2021/09/29 02:08:25;;;;;;;6.50;5.87;;;;;;;10.52;100.00;98221.06;4960511;28;20493;-69
2021/09/29 02:10:53;;;;;;;7.17;6.57;;;;;;;10.54;100.00;98223.56;4936991;28;20214;-69
2021/09/29 02:13:21;;;;;;;7.23;6.63;;;;;;;10.67;100.00;98225.78;4962093;28;20233;-69
2021/09/29 02:15:50;;;;;;;7.17;6.53;;;;;;;10.69;100.00;98235.22;4969416;28;20205;-69
2021/09/29 02:18:18;;;;;;;7.27;6.67;;;;;;;10.61;100.00;98244.97;4975668;28;20201;-69
2021/09/29 02:20:46;;;;;;;6.60;6.10;;;;;;;10.62;100.00;98242.16;4924326;28;20421;-70
2021/09/29 02:23:14;;;;;;;7.30;6.40;;;;;;;10.61;100.00;98248.44;4967151;28;20236;-70
2021/09/29 02:25:42;;;;;;;7.33;6.73;;;;;;;10.65;100.00;98254.28;4964393;28;20229;-68
2021/09/29 02:28:10;;;;;;;7.23;6.73;;;;;;;10.62;100.00;98252.75;4958694;28;20257;-68
2021/09/29 02:30:38;;;;;;;6.80;6.30;;;;;;;10.67;100.00;98253.09;4963855;28;20586;-68
2021/09/29 02:33:07;;;;;;;6.63;6.13;;;;;;;10.73;100.00;98256.94;4945180;28;20911;-68
2021/09/29 02:35:35;;;;;;;7.87;6.73;;;;;;;10.70;100.00;98257.28;4935832;28;21221;-69
2021/09/29 02:38:04;;;;;;;7.27;6.67;;;;;;;10.71;100.00;98261.59;4965156;28;20209;-68
2021/09/29 02:40:32;;;;;;;6.77;6.37;;;;;;;10.75;100.00;98260.28;4962501;28;20210;-70
2021/09/29 02:43:00;;;;;;;7.73;6.93;;;;;;;10.81;100.00;98266.78;4969984;28;20229;-69
2021/09/29 02:45:28;;;;;;;7.97;7.37;;;;;;;10.91;100.00;98253.38;4955370;28;20238;-68
2021/09/29 02:47:56;;;;;;;6.83;6.23;;;;;;;10.85;100.00;98260.97;4962173;28;20230;-68
2021/09/29 02:50:25;;;;;;;7.13;6.53;;;;;;;10.87;100.00;98263.47;4938015;28;20222;-70
2021/09/29 02:52:53;;;;;;;6.80;6.30;;;;;;;10.92;100.00;98258.53;4954002;28;20237;-68
2021/09/29 02:55:21;;;;;;;8.57;7.70;;;;;;;10.96;100.00;98251.06;4971057;28;20205;-69
2021/09/29 02:57:49;;;;;;;7.23;6.73;;;;;;;10.91;100.00;98237.47;4938420;28;21390;-69
2021/09/29 03:00:17;;;;;;;6.73;6.33;;;;;;;11.03;100.00;98241.50;4971833;28;20198;-69
2021/09/29 03:02:45;;;;;;;7.27;6.67;;;;;;;11.13;100.00;98226.28;4957654;28;20479;-68
2021/09/29 03:05:13;;;;;;;7.50;6.90;;;;;;;11.19;100.00;98216.84;4971216;28;20205;-68
2021/09/29 03:07:43;;;;;;;7.37;6.70;;;;;;;11.02;100.00;98215.97;4925848;28;20622;-67
2021/09/29 03:10:10;;;;;;;9.13;7.03;;;;;;;11.04;100.00;98214.00;4973253;28;20224;-68
2021/09/29 03:12:38;;;;;;;7.00;6.40;;;;;;;10.99;100.00;98213.66;4969984;28;20236;-67
2021/09/29 03:15:07;;;;;;;6.83;6.33;;;;;;;10.96;100.00;98205.97;4971285;28;20209;-69
2021/09/29 03:17:35;;;;;;;7.07;6.53;;;;;;;10.91;100.00;98203.84;4968557;28;20205;-67
2021/09/29 03:20:04;;;;;;;7.63;7.03;;;;;;;10.89;100.00;98207.63;4959687;28;20214;-68
2021/09/29 03:22:32;;;;;;;7.13;6.63;;;;;;;11.00;100.00;98205.50;4929323;28;20244;-67
2021/09/29 03:25:01;;;;;;;7.90;7.30;;;;;;;10.96;100.00;98200.69;4963955;28;20411;-68
2021/09/29 03:27:29;;;;;;;7.23;6.63;;;;;;;10.92;100.00;98208.16;4968856;28;20236;-68
2021/09/29 03:29:57;;;;;;;6.83;6.23;;;;;;;10.86;100.00;98212.25;4950229;28;20205;-70
2021/09/29 03:32:25;;;;;;;7.60;6.83;;;;;;;10.82;100.00;98218.06;4971173;28;20229;-69
2021/09/29 03:34:53;;;;;;;7.47;6.77;;;;;;;10.68;100.00;98227.44;4957545;28;20210;-68
2021/09/29 03:37:21;;;;;;;7.13;6.53;;;;;;;10.74;100.00;98237.41;4923965;28;20950;-69
2021/09/29 03:39:49;;;;;;;6.67;6.17;;;;;;;10.61;100.00;98234.38;4955375;28;20287;-70
2021/09/29 03:42:19;;;;;;;7.10;6.50;;;;;;;10.65;100.00;98239.19;4970825;28;20232;-68
2021/09/29 03:44:47;;;;;;;7.17;6.37;;;;;;;10.61;100.00;98244.97;4960110;28;20209;-69
2021/09/29 03:47:15;;;;;;;7.00;6.40;;;;;;;10.63;100.00;98248.28;4969164;28;20682;-68
2021/09/29 03:49:42;;;;;;;6.50;5.97;;;;;;;10.66;100.00;98240.84;4969794;28;20202;-69
2021/09/29 03:52:10;;;;;;;6.17;5.77;;;;;;;10.69;100.00;98237.88;4922390;28;20242;-68
2021/09/29 03:54:38;;;;;;;6.57;6.07;;;;;;;10.64;100.00;98245.47;4954085;28;20202;-69
2021/09/29 03:57:06;;;;;;;6.47;5.90;;;;;;;10.62;100.00;98243.97;4965402;28;21054;-68
2021/09/29 03:59:36;;;;;;;7.30;6.70;;;;;;;10.61;100.00;98229.88;4970935;28;20599;-70
2021/09/29 04:02:04;;;;;;;6.80;6.30;;;;;;;10.61;100.00;98226.41;4969181;28;20332;-68
2021/09/29 04:04:33;;;;;;;6.50;6.00;;;;;;;10.61;100.00;98227.25;4957020;28;20218;-69
2021/09/29 04:07:01;;;;;;;6.57;6.07;;;;;;;10.66;100.00;98216.16;4958781;28;20210;-67
2021/09/29 04:09:29;;;;;;;6.10;5.60;;;;;;;10.77;100.00;98205.28;4945880;28;20225;-67
2021/09/29 04:11:57;;;;;;;7.03;6.33;;;;;;;10.86;100.00;98200.84;4957512;28;20229;-69
2021/09/29 04:14:25;;;;;;;6.63;6.10;;;;;;;10.82;100.00;98184.41;4970293;28;20653;-68
2021/09/29 04:16:55;;;;;;;6.40;6.00;;;;;;;10.72;100.00;98189.03;4974668;28;20212;-69
2021/09/29 04:19:23;;;;;;;7.67;6.83;;;;;;;10.67;100.00;98205.41;4970293;28;20293;-69
2021/09/29 04:21:51;;;;;;;6.53;6.03;;;;;;;10.64;100.00;98218.97;4966351;28;20241;-69
2021/09/29 04:24:19;;;;;;;6.53;6.03;;;;;;;10.71;100.00;98233.25;4941421;28;20218;-68
2021/09/29 04:26:50;;;;;;;6.33;5.83;;;;;;;10.75;100.00;98232.91;4931868;28;20240;-66
2021/09/29 04:29:18;;;;;;;6.07;5.60;;;;;;;10.77;100.00;98222.97;4971526;28;20241;-68
2021/09/29 04:31:46;;;;;;;6.57;5.97;;;;;;;10.68;100.00;98230.91;4979915;28;20684;-70
2021/09/29 04:34:15;;;;;;;7.17;6.67;;;;;;;10.73;100.00;98233.09;4957696;28;20224;-69
2021/09/29 04:36:43;;;;;;;6.87;6.27;;;;;;;10.75;100.00;98246.16;4971408;28;20228;-66
2021/09/29 04:39:11;;;;;;;6.70;6.20;;;;;;;10.70;100.00;98249.31;4964366;28;20224;-67
2021/09/29 04:41:39;;;;;;;6.50;5.90;;;;;;;10.71;100.00;98249.16;4939995;28;20519;-66
2021/09/29 04:44:07;;;;;;;6.50;5.87;;;;;;;10.75;100.00;98241.72;4974180;28;20623;-68
2021/09/29 04:46:35;;;;;;;6.70;6.20;;;;;;;10.76;100.00;98245.19;4973661;28;20224;-67
2021/09/29 04:49:03;;;;;;;7.73;7.03;;;;;;;10.71;100.00;98240.38;4971121;28;20411;-66
2021/09/29 04:51:32;;;;;;;6.97;6.47;;;;;;;10.78;100.00;98235.25;4969180;28;20574;-67
2021/09/29 04:54:00;;;;;;;6.93;6.33;;;;;;;10.76;100.00;98229.28;4960376;28;20450;-67
2021/09/29 04:56:29;;;;;;;7.73;6.90;;;;;;;10.78;100.00;98227.28;4928377;28;20273;-66
2021/09/29 04:58:57;;;;;;;7.07;6.53;;;;;;;10.76;100.00;98234.56;4969236;28;20272;-68
2021/09/29 05:01:26;;;;;;;7.03;6.53;;;;;;;10.82;100.00;98226.00;4965790;28;20217;-67
2021/09/29 05:03:54;;;;;;;7.10;6.50;;;;;;;10.69;100.00;98218.50;4962144;28;20671;-67
2021/09/29 05:06:23;;;;;;;7.50;7.00;;;;;;;10.71;100.00;98227.94;4973663;28;20208;-67
2021/09/29 05:08:52;;;;;;;9.97;7.93;;;;;;;10.70;100.00;98234.22;4963470;28;20229;-68
2021/09/29 05:11:22;;;;;;;8.43;7.63;;;;;;;10.68;100.00;98236.22;4967546;28;20217;-67
2021/09/29 05:13:50;;;;;;;9.53;7.90;;;;;;;10.68;100.00;98249.47;4954580;28;20297;-68
2021/09/29 05:16:18;;;;;;;8.63;7.90;;;;;;;10.75;100.00;98254.97;4972546;28;20209;-67
2021/09/29 05:18:46;;;;;;;8.27;7.43;;;;;;;10.91;100.00;98261.31;4958589;28;20496;-69
2021/09/29 05:21:14;;;;;;;8.73;7.90;;;;;;;11.32;100.00;98255.31;4974162;28;20559;-68
2021/09/29 05:23:42;;;;;;;9.67;8.83;;;;;;;11.26;100.00;98249.69;4972243;28;20225;-69
2021/09/29 05:26:12;;;;;;;9.97;9.00;;;;;;;11.31;100.00;98253.66;4972200;28;20217;-68
2021/09/29 05:28:42;;;;;;;9.93;8.93;;;;;;;11.34;100.00;98259.47;4931206;28;20253;-70
2021/09/29 05:31:10;;;;;;;8.97;8.10;;;;;;;11.29;100.00;98254.66;4973318;28;20334;-70
2021/09/29 05:33:38;;;;;;;8.10;7.50;;;;;;;11.40;100.00;98250.03;4959240;28;20221;-70
2021/09/29 05:36:06;;;;;;;8.43;7.73;;;;;;;11.37;100.00;98250.38;4966883;28;20686;-70
2021/09/29 05:38:34;;;;;;;9.63;8.43;;;;;;;11.29;100.00;98254.66;4960284;28;20642;-67
2021/09/29 05:41:02;;;;;;;9.43;8.60;;;;;;;11.25;100.00;98258.63;4972008;28;20881;-71
2021/09/29 05:43:31;;;;;;;8.90;8.10;;;;;;;11.28;100.00;98254.81;4933881;28;20233;-70
2021/09/29 05:45:59;;;;;;;8.70;7.90;;;;;;;11.26;100.00;98246.19;4960574;28;20385;-71
2021/09/29 05:48:27;;;;;;;11.10;8.40;;;;;;;11.24;100.00;98248.16;4960259;28;20328;-70
2021/09/29 05:50:55;;;;;;;9.17;8.47;;;;;;;11.29;100.00;98252.00;4969881;28;20288;-68
2021/09/29 05:53:23;;;;;;;9.53;8.63;;;;;;;11.23;100.00;98262.44;4977354;28;20221;-69
2021/09/29 05:55:51;;;;;;;9.80;8.83;;;;;;;11.08;100.00;98268.38;4969003;28;20206;-70
2021/09/29 05:58:19;;;;;;;9.67;8.77;;;;;;;10.94;100.00;98264.50;4937582;28;20215;-70
2021/09/29 06:00:49;;;;;;;9.43;8.63;;;;;;;10.97;100.00;98265.97;4956104;28;20220;-71
2021/09/29 06:03:19;;;;;;;10.30;9.50;;;;;;;10.99;100.00;98269.34;4971770;28;20237;-72
2021/09/29 06:05:47;;;;;;;10.07;8.87;;;;;;;11.02;100.00;98266.34;4960611;28;20237;-70
2021/09/29 06:08:15;;;;;;;11.40;8.97;;;;;;;11.08;100.00;98262.22;4975097;28;20470;-71
2021/09/29 06:10:43;;;;;;;14.43;8.73;;;;;;;11.00;100.00;98263.84;4967444;28;20224;-71
2021/09/29 06:13:11;;;;;;;9.03;8.33;;;;;;;11.09;100.00;98254.09;4939496;28;20249;-70
2021/09/29 06:15:42;;;;;;;9.63;8.67;;;;;;;11.14;100.00;98265.06;4949646;28;20642;-71
2021/09/29 06:18:14;;;;;;;9.50;8.60;;;;;;;11.12;100.00;98272.34;4962327;28;20772;-70
2021/09/29 06:20:44;;;;;;;8.80;7.97;;;;;;;11.08;100.00;98260.41;4957980;28;20670;-70
2021/09/29 06:23:13;;;;;;;10.07;9.17;;;;;;;11.20;100.00;98271.56;4969030;28;20222;-71
2021/09/29 06:25:41;;;;;;;11.83;8.83;;;;;;;11.39;100.00;98274.91;4971992;28;20213;-70
2021/09/29 06:28:09;;;;;;;9.07;8.27;;;;;;;11.43;100.00;98273.59;4935251;28;20689;-70
2021/09/29 06:30:37;;;;;;;9.23;8.43;;;;;;;11.53;100.00;98276.09;4959024;28;20253;-71
2021/09/29 06:33:05;;;;;;;8.87;8.00;;;;;;;11.57;100.00;98270.31;4936142;28;20234;-69
2021/09/29 06:35:34;;;;;;;9.10;8.33;;;;;;;11.52;100.00;98271.78;4965576;28;20206;-71
2021/09/29 06:38:02;;;;;;;9.50;8.37;;;;;;;11.62;100.00;98279.59;4970407;28;20637;-69
2021/09/29 06:40:31;;;;;;;9.60;8.80;;;;;;;11.73;100.00;98279.28;4969028;28;20373;-71
2021/09/29 06:43:03;;;;;;;9.43;8.63;;;;;;;11.73;100.00;98288.06;4972401;28;20377;-70
2021/09/29 06:45:32;;;;;;;10.17;9.27;;;;;;;11.75;100.00;98287.09;4970251;28;20256;-69
2021/09/29 06:48:00;;;;;;;8.90;8.10;;;;;;;11.66;100.00;98294.22;4935448;28;20236;-72
2021/09/29 06:50:28;;;;;;;8.83;8.03;;;;;;;11.80;100.00;98290.09;4966290;28;20797;-71
2021/09/29 06:52:59;;;;;;;8.97;8.17;;;;;;;11.77;100.00;98291.22;4971243;28;21343;-72
2021/09/29 06:55:27;;;;;;;9.43;8.63;;;;;;;11.85;100.00;98293.88;4968579;28;20865;-70
2021/09/29 06:57:55;;;;;;;10.20;9.20;;;;;;;11.91;100.00;98307.50;4957522;28;21169;-68
2021/09/29 07:00:32;;;;;;;9.63;8.73;;;;;;;11.95;100.00;98309.66;4971334;28;20213;-71
2021/09/29 07:03:00;;;;;;;9.80;9.00;;;;;;;12.14;100.00;98310.38;4933173;28;21856;-72
2021/09/29 07:05:28;;;;;;;8.40;7.63;;;;;;;12.35;100.00;98304.56;4966633;28;20786;-69
2021/09/29 07:07:59;;;;;;;8.10;7.50;;;;;;;12.58;100.00;98304.69;4958491;28;20410;-72
2021/09/29 07:10:28;;;;;;;9.30;7.50;;;;;;;12.82;100.00;98318.09;4968414;28;20234;-72
2021/09/29 07:12:57;;;;;;;8.47;7.67;;;;;;;12.96;100.00;98309.41;4966880;28;20236;-69
2021/09/29 07:15:26;;;;;;;7.40;6.67;;;;;;;13.12;100.00;98313.00;4972246;28;20209;-69
2021/09/29 07:17:58;;;;;;;8.43;7.50;;;;;;;13.10;100.00;98309.69;4934557;28;22597;-69
2021/09/29 07:20:27;;;;;;;6.53;5.93;;;;;;;13.20;100.00;98315.63;4968327;28;20218;-71
2021/09/29 07:22:57;;;;;;;6.50;5.90;;;;;;;13.27;100.00;98313.94;4968735;28;20341;-69
2021/09/29 07:25:28;;;;;;;6.37;5.73;;;;;;;13.19;100.00;98316.63;4970001;28;20318;-68
2021/09/29 07:27:58;;;;;;;7.07;5.40;;;;;;;13.22;100.00;98312.78;4965575;28;20205;-70
2021/09/29 07:30:26;;;;;;;5.57;5.07;;;;;;;13.36;100.00;98317.38;4971088;28;20312;-70
2021/09/29 07:32:56;;;;;;;7.77;5.17;;;;;;;13.34;100.00;98316.75;4972261;28;20737;-71
2021/09/29 07:35:24;;;;;;;5.33;4.83;;;;;;;13.29;100.00;98319.91;4918514;28;20522;-71
2021/09/29 07:37:52;;;;;;;5.20;4.80;;;;;;;13.20;100.00;98323.63;4970365;28;20216;-72
2021/09/29 07:40:20;;;;;;;5.43;4.93;;;;;;;13.17;100.00;98329.28;4950647;28;20225;-71
2021/09/29 07:42:48;;;;;;;4.73;4.30;;;;;;;13.27;100.00;98326.44;4960675;28;20248;-70
2021/09/29 07:45:22;;;;;;;5.03;4.63;;;;;;;13.29;100.00;98322.56;4953973;28;20293;-71
2021/09/29 07:47:51;;;;;;;5.43;4.40;;;;;;;13.31;100.00;98320.56;4970161;28;20209;-69
2021/09/29 07:50:19;;;;;;;4.63;4.20;;;;;;;13.50;100.00;98321.19;4946838;28;20233;-71
2021/09/29 07:52:48;;;;;;;4.13;3.83;;;;;;;13.39;100.00;98326.84;4975536;28;21864;-70
2021/09/29 07:55:17;;;;;;;4.73;3.97;;;;;;;13.69;100.00;98332.38;4969400;28;20228;-71
2021/09/29 07:57:46;;;;;;;3.80;3.50;;;;;;;13.66;100.00;98332.72;4968410;28;20655;-71
2021/09/29 08:00:15;;;;;;;4.60;3.90;;;;;;;13.87;100.00;98324.09;4969001;28;20214;-70
2021/09/29 08:02:45;;;;;;;4.83;4.33;;;;;;;14.06;100.00;98329.97;4954572;28;20237;-70
2021/09/29 08:05:15;;;;;;;5.10;3.23;;;;;;;14.06;100.00;98335.31;4939285;28;20665;-71
2021/09/29 08:07:46;;;;;;;5.07;4.23;;;;;;;14.22;100.00;98332.50;4973703;28;20745;-71
2021/09/29 08:10:14;;;;;;;3.40;3.20;;;;;;;14.22;100.00;98331.69;4969217;28;20240;-74
2021/09/29 08:12:42;;;;;;;2.90;2.80;;;;;;;14.04;100.00;98341.66;4970492;28;20764;-71
2021/09/29 08:15:13;;;;;;;2.93;2.83;;;;;;;13.78;100.00;98344.63;4965416;28;20331;-69
2021/09/29 08:17:42;;;;;;;3.63;3.37;;;;;;;13.77;100.00;98348.31;4939842;28;20318;-68
2021/09/29 08:20:15;;;;;;;4.10;2.80;;;;;;;13.79;100.00;98356.13;4962624;28;20217;-68
2021/09/29 08:22:45;;;;;;;3.37;3.03;;;;;;;14.00;100.00;98355.50;4940996;28;20748;-69
2021/09/29 08:25:20;;;;;;;3.73;3.33;;;;;;;14.26;100.00;98364.97;4969173;28;20721;-70
2021/09/29 08:27:57;;;;;;;6.27;3.23;;;;;;;14.53;100.00;98354.72;4973309;28;20220;-68
2021/09/29 08:30:36;;;;;;;3.30;3.10;;;;;;;14.67;100.00;98356.63;4972540;28;20500;-67
2021/09/29 08:33:12;;;;;;;3.37;3.17;;;;;;;14.58;100.00;98360.34;4956359;28;20661;-69
2021/09/29 08:35:50;;;;;;;3.47;3.17;;;;;;;14.78;100.00;98355.38;4932620;28;20680;-69
2021/09/29 08:38:27;;;;;;;3.07;2.87;;;;;;;14.35;100.00;98360.38;4950992;28;20775;-69
2021/09/29 08:41:02;;;;;;;3.80;2.70;;;;;;;14.34;100.00;98362.25;4979033;28;20271;-69
2021/09/29 08:43:35;;;;;;;3.30;3.00;;;;;;;14.64;100.00;98358.81;4927312;28;20642;-69
2021/09/29 08:46:06;;;;;;;2.73;2.63;;;;;;;14.84;100.00;98353.81;4954594;28;20367;-69
2021/09/29 08:48:39;;;;;;;3.53;3.33;;;;;;;15.06;100.00;98354.72;4970688;28;20214;-69
2021/09/29 09:16:35;;;;;;;1.60;1.50;;;;;;;15.79;100.00;98351.34;4912852;28;20216;-71
2021/09/29 09:19:07;;;;;;;2.43;1.37;;;;;;;15.98;100.00;98341.06;4972189;28;20213;-70
2021/09/29 09:21:41;;;;;;;2.07;1.50;;;;;;;16.03;100.00;98330.63;4969511;28;20202;-71
2021/09/29 09:24:17;;;;;;;1.43;1.30;;;;;;;16.09;100.00;98339.72;4960371;28;20232;-68
2021/09/29 09:26:45;;;;;;;1.40;1.30;;;;;;;16.16;100.00;98341.44;4971334;28;20705;-71
2021/09/29 09:29:14;;;;;;;4.43;1.43;;;;;;;16.27;100.00;98349.97;4967530;28;20555;-69
2021/09/29 09:31:44;;;;;;;1.10;1.10;;;;;;;16.42;100.00;98349.91;4948740;28;20883;-67
2021/09/29 09:34:13;;;;;;;3.13;1.20;;;;;;;16.57;100.00;98349.81;4972533;28;20756;-68
2021/09/29 09:36:43;;;;;;;2.30;1.40;;;;;;;16.66;100.00;98355.81;4966861;28;20526;-71
2021/09/29 09:39:13;;;;;;;1.87;1.53;;;;;;;16.81;100.00;98345.88;4959051;28;20239;-69
2021/09/29 09:41:48;;;;;;;1.40;1.30;;;;;;;16.98;100.00;98350.94;4958937;28;21397;-68
2021/09/29 09:44:24;;;;;;;2.90;2.70;;;;;;;16.75;100.00;98342.09;4974595;28;20213;-69
2021/09/29 09:47:01;;;;;;;1.70;1.50;;;;;;;16.69;100.00;98342.91;4937256;28;20494;-70
2021/09/29 09:49:29;;;;;;;1.90;1.23;;;;;;;16.70;100.00;98347.22;4955475;28;20209;-69
2021/09/29 09:52:00;;;;;;;1.80;1.30;;;;;;;16.72;100.00;98344.38;4972644;28;20233;-69
2021/09/29 09:54:35;;;;;;;3.57;1.43;;;;;;;16.85;100.00;98352.47;4960201;28;20209;-68
2021/09/29 09:57:09;;;;;;;2.40;2.07;;;;;;;16.98;100.00;98351.78;4973789;28;20205;-68
2021/09/29 09:59:37;;;;;;;2.63;1.70;;;;;;;16.78;100.00;98339.03;4972331;28;20205;-69
2021/09/29 10:02:05;;;;;;;1.93;1.73;;;;;;;16.76;100.00;98349.13;4938252;28;20653;-68
2021/09/29 10:04:33;;;;;;;1.80;1.50;;;;;;;17.29;100.00;98341.63;4967588;28;20197;-70
2021/09/29 10:07:05;;;;;;;4.37;1.50;;;;;;;17.67;98.16;98343.03;4972724;28;20208;-71
2021/09/29 10:09:39;;;;;;;2.10;1.20;;;;;;;17.56;94.94;98331.84;4957773;28;20883;-71
2021/09/29 10:12:24;;;;;;;1.60;1.50;;;;;;;17.60;92.34;98326.91;4953706;28;20234;-69
2021/09/29 10:15:10;;;;;;;3.50;1.20;;;;;;;17.92;89.45;98328.00;4968739;28;20205;-70
2021/09/29 10:23:19;;;;;;;1.70;1.20;;;;;;;16.89;94.27;98323.47;4939174;28;20624;-69
2021/09/29 10:26:07;;;;;;;2.00;1.33;;;;;;;16.69;96.38;98334.06;4970123;28;20252;-70
2021/09/29 10:28:38;;;;;;;1.50;1.40;;;;;;;16.34;93.97;98332.13;4967509;28;20949;-70
2021/09/29 10:34:02;;;;;;;2.77;1.50;;;;;;;16.07;100.00;98326.53;4929908;28;20520;-70
2021/09/29 10:36:44;;;;;;;1.30;1.30;;;;;;;16.04;100.00;98329.59;4969960;28;20394;-67
2021/09/29 10:42:18;;;;;;;2.10;1.83;;;;;;;15.99;100.00;98326.66;4968181;28;20224;-69
2021/09/29 10:47:54;;;;;;;3.50;1.60;;;;;;;16.12;100.00;98336.66;4950470;28;20496;-69
2021/09/29 11:05:00;;;;;;;2.20;1.37;;;;;;;16.97;100.00;98320.63;4970139;28;20268;-70
2021/09/29 11:27:39;;;;;;;4.03;1.63;;;;;;;17.16;97.48;98312.94;4966252;28;20209;-68
2021/09/29 11:30:19;;;;;;;1.90;1.33;;;;;;;17.73;87.64;98308.19;4969962;28;20209;-70
2021/09/29 11:32:50;;;;;;;1.70;1.60;;;;;;;17.59;89.33;98318.03;4964521;28;20234;-69
2021/09/29 11:35:33;;;;;;;1.70;1.47;;;;;;;17.53;84.03;98302.75;4969912;28;20563;-69
2021/09/29 12:08:44;;;;;;;2.40;1.30;;;;;;;17.91;74.46;98282.66;4970616;28;20206;-69
2021/09/29 12:11:19;;;;;;;2.20;1.20;;;;;;;17.85;72.79;98264.72;4965929;28;20205;-70
2021/09/29 12:13:51;;;;;;;1.53;1.30;;;;;;;18.11;75.67;98268.44;4934488;28;20287;-68
2021/09/29 12:16:30;;;;;;;1.30;1.20;;;;;;;18.14;71.92;98276.94;4967478;28;20289;-70
2021/09/29 12:18:59;;;;;;;2.77;1.00;;;;;;;18.33;65.98;98258.34;4957045;28;20201;-68
2021/09/29 12:21:37;;;;;;;3.07;1.00;;;;;;;18.43;66.75;98263.28;4969726;28;20232;-71
2021/09/29 12:24:09;;;;;;;3.70;1.20;;;;;;;18.15;67.03;98254.44;4966989;28;20210;-69
2021/09/29 12:26:47;;;;;;;1.40;1.30;;;;;;;18.18;72.66;98256.69;4968895;28;20202;-70
2021/09/29 12:29:26;;;;;;;2.73;1.00;;;;;;;18.72;71.00;98245.06;4956568;28;20345;-69
2021/09/29 12:34:48;;;;;;;0.90;0.90;;;;;;;19.56;62.78;98223.66;4959940;28;20214;-70
2021/09/29 12:37:16;;;;;;;1.30;0.83;;;;;;;20.39;60.84;98237.09;4972575;28;20216;-70
2021/09/29 12:39:45;;;;;;;1.20;1.10;;;;;;;21.00;53.99;98234.56;4975752;28;20606;-69
2021/09/29 12:42:33;;;;;;;1.13;0.90;;;;;;;20.89;54.20;98240.72;4973385;28;20217;-70
2021/09/29 12:45:01;;;;;;;1.20;1.00;;;;;;;20.40;55.02;98238.72;4937159;28;20551;-70
2021/09/29 12:47:38;;;;;;;3.23;1.27;;;;;;;20.37;57.54;98233.78;4972104;28;20674;-69
2021/09/29 12:50:12;;;;;;;1.83;0.90;;;;;;;19.46;57.02;98236.72;4962650;28;20721;-69
2021/09/29 12:52:47;;;;;;;1.93;1.23;;;;;;;19.30;59.86;98244.25;4944975;28;20245;-69
2021/09/29 12:55:21;;;;;;;3.80;1.40;;;;;;;19.14;62.92;98242.88;4973404;28;20201;-70
2021/09/29 12:57:49;;;;;;;1.80;1.20;;;;;;;19.58;61.89;98240.38;4964389;28;20435;-70
2021/09/29 13:00:17;;;;;;;1.37;1.20;;;;;;;19.85;59.79;98229.44;4902095;28;20697;-70
2021/09/29 13:02:45;;;;;;;1.30;0.90;;;;;;;20.18;59.19;98238.31;4970595;28;20225;-70
2021/09/29 13:05:13;;;;;;;1.23;0.83;;;;;;;20.14;59.44;98234.41;4969467;28;20300;-70
2021/09/29 13:07:42;;;;;;;0.80;0.80;;;;;;;19.57;59.87;98236.06;4968302;28;20214;-70
2021/09/29 13:10:10;;;;;;;1.73;1.03;;;;;;;19.26;60.79;98236.81;4968816;28;20210;-69
2021/09/29 13:12:40;;;;;;;2.63;1.27;;;;;;;19.13;64.20;98243.91;4973745;28;20693;-68
2021/09/29 13:15:09;;;;;;;2.90;1.07;;;;;;;18.85;65.82;98245.03;4936137;28;20217;-67
2021/09/29 13:17:37;;;;;;;2.07;0.97;;;;;;;18.29;66.25;98244.53;4970862;28;20201;-68
2021/09/29 13:20:08;;;;;;;1.57;1.27;;;;;;;19.01;63.51;98240.25;4971324;28;20210;-66
2021/09/29 13:22:37;;;;;;;1.80;1.33;;;;;;;20.10;58.69;98242.09;4965412;28;20236;-69
2021/09/29 13:25:31;;;;;;;1.00;0.73;;;;;;;20.10;57.46;98239.41;4969803;28;20222;-69
2021/09/29 13:36:36;;;;;;;0.77;0.77;;;;;;;20.01;61.81;98252.28;4968753;28;20485;-69